sensor_id;sensor_type;location;lat;lon;timestamp;P1;durP1;ratioP1;P2;durP2;ratioP2
53670;SDS011;39571;48.612;8.088;2023-04-06T07:19:20;12.88;;;9.20;;
53670;SDS011;39571;48.612;8.088;2023-04-06T07:21:45;11.15;;;8.00;;
53670;SDS011;39571;48.612;8.088;2023-04-06T07:24:11;9.95;;;7.25;;
53670;SDS011;39571;48.612;8.088;2023-04-06T07:26:36;9.70;;;6.90;;
53670;SDS011;39571;48.612;8.088;2023-04-06T07:29:01;7.45;;;6.28;;
53670;SDS011;39571;48.612;8.088;2023-04-06T07:31:27;7.15;;;6.35;;
53670;SDS011;39571;48.612;8.088;2023-04-06T07:33:52;6.20;;;5.60;;
53670;SDS011;39571;48.612;8.088;2023-04-06T07:36:18;7.72;;;6.22;;
53670;SDS011;39571;48.612;8.088;2023-04-06T07:38:43;10.27;;;8.65;;
53670;SDS011;39571;48.612;8.088;2023-04-06T07:41:10;9.73;;;8.02;;
53670;SDS011;39571;48.612;8.088;2023-04-06T07:43:36;8.27;;;7.35;;
53670;SDS011;39571;48.612;8.088;2023-04-06T07:46:01;7.78;;;6.97;;
53670;SDS011;39571;48.612;8.088;2023-04-06T07:48:27;8.10;;;7.30;;
53670;SDS011;39571;48.612;8.088;2023-04-06T07:50:54;8.88;;;7.85;;
53670;SDS011;39571;48.612;8.088;2023-04-06T07:53:26;9.40;;;7.05;;
53670;SDS011;39571;48.612;8.088;2023-04-06T07:55:51;8.38;;;7.25;;
53670;SDS011;39571;48.612;8.088;2023-04-06T07:58:16;8.77;;;7.20;;
53670;SDS011;39571;48.612;8.088;2023-04-06T08:00:42;7.35;;;6.53;;
53670;SDS011;39571;48.612;8.088;2023-04-06T08:03:09;9.90;;;7.30;;
53670;SDS011;39571;48.612;8.088;2023-04-06T08:05:35;7.82;;;6.72;;
53670;SDS011;39571;48.612;8.088;2023-04-06T08:08:00;8.52;;;6.65;;
53670;SDS011;39571;48.612;8.088;2023-04-06T08:10:26;7.97;;;6.80;;
53670;SDS011;39571;48.612;8.088;2023-04-06T08:12:51;7.38;;;6.45;;
53670;SDS011;39571;48.612;8.088;2023-04-06T08:15:17;8.02;;;6.80;;
53670;SDS011;39571;48.612;8.088;2023-04-06T08:17:43;8.00;;;6.20;;
53670;SDS011;39571;48.612;8.088;2023-04-06T08:20:08;7.75;;;5.95;;
53670;SDS011;39571;48.612;8.088;2023-04-06T08:22:34;6.78;;;6.03;;
53670;SDS011;39571;48.612;8.088;2023-04-06T08:24:59;6.53;;;5.60;;
53670;SDS011;39571;48.612;8.088;2023-04-06T08:27:25;8.18;;;6.50;;
53670;SDS011;39571;48.612;8.088;2023-04-06T08:29:51;7.00;;;6.30;;
53670;SDS011;39571;48.612;8.088;2023-04-06T08:32:16;7.32;;;6.35;;
53670;SDS011;39571;48.612;8.088;2023-04-06T08:34:42;6.60;;;5.95;;
53670;SDS011;39571;48.612;8.088;2023-04-06T08:37:07;6.93;;;6.15;;
53670;SDS011;39571;48.612;8.088;2023-04-06T08:39:32;6.88;;;5.90;;
53670;SDS011;39571;48.612;8.088;2023-04-06T08:41:58;7.53;;;5.63;;
53670;SDS011;39571;48.612;8.088;2023-04-06T08:44:25;6.18;;;5.43;;
53670;SDS011;39571;48.612;8.088;2023-04-06T08:46:52;6.53;;;5.40;;
53670;SDS011;39571;48.612;8.088;2023-04-06T08:49:17;5.82;;;5.22;;
53670;SDS011;39571;48.612;8.088;2023-04-06T08:51:43;5.85;;;4.90;;
53670;SDS011;39571;48.612;8.088;2023-04-06T08:54:09;5.68;;;5.05;;
53670;SDS011;39571;48.612;8.088;2023-04-06T08:56:37;7.90;;;4.60;;
53670;SDS011;39571;48.612;8.088;2023-04-06T08:59:03;5.55;;;4.68;;
53670;SDS011;39571;48.612;8.088;2023-04-06T09:01:30;5.75;;;4.85;;
53670;SDS011;39571;48.612;8.088;2023-04-06T09:03:58;5.18;;;4.47;;
53670;SDS011;39571;48.612;8.088;2023-04-06T09:06:25;5.85;;;4.97;;
53670;SDS011;39571;48.612;8.088;2023-04-06T09:08:52;5.45;;;4.88;;
53670;SDS011;39571;48.612;8.088;2023-04-06T09:11:17;5.38;;;4.88;;
53670;SDS011;39571;48.612;8.088;2023-04-06T09:13:50;5.93;;;5.38;;
53670;SDS011;39571;48.612;8.088;2023-04-06T09:16:17;6.50;;;4.78;;
53670;SDS011;39571;48.612;8.088;2023-04-06T09:18:43;5.78;;;5.28;;
53670;SDS011;39571;48.612;8.088;2023-04-06T09:21:10;6.95;;;4.82;;
53670;SDS011;39571;48.612;8.088;2023-04-06T09:23:35;6.10;;;5.35;;
53670;SDS011;39571;48.612;8.088;2023-04-06T09:26:08;6.28;;;5.30;;
53670;SDS011;39571;48.612;8.088;2023-04-06T09:31:10;6.68;;;5.00;;
53670;SDS011;39571;48.612;8.088;2023-04-06T09:33:40;6.50;;;5.10;;
53670;SDS011;39571;48.612;8.088;2023-04-06T09:36:06;6.43;;;5.22;;
53670;SDS011;39571;48.612;8.088;2023-04-06T09:38:34;6.22;;;5.35;;
53670;SDS011;39571;48.612;8.088;2023-04-06T09:41:01;6.45;;;5.05;;
53670;SDS011;39571;48.612;8.088;2023-04-06T09:43:26;5.75;;;5.03;;
53670;SDS011;39571;48.612;8.088;2023-04-06T09:45:52;7.18;;;4.95;;
53670;SDS011;39571;48.612;8.088;2023-04-06T09:48:19;8.23;;;5.82;;
53670;SDS011;39571;48.612;8.088;2023-04-06T09:50:47;6.78;;;5.13;;
53670;SDS011;39571;48.612;8.088;2023-04-06T09:53:15;6.57;;;5.57;;
53670;SDS011;39571;48.612;8.088;2023-04-06T09:55:44;5.68;;;4.93;;
53670;SDS011;39571;48.612;8.088;2023-04-06T09:58:15;6.60;;;5.53;;
53670;SDS011;39571;48.612;8.088;2023-04-06T10:00:47;7.38;;;5.65;;
53670;SDS011;39571;48.612;8.088;2023-04-06T10:06:03;6.95;;;5.97;;
53670;SDS011;39571;48.612;8.088;2023-04-06T10:08:33;6.07;;;5.47;;
53670;SDS011;39571;48.612;8.088;2023-04-06T10:11:00;7.15;;;6.03;;
53670;SDS011;39571;48.612;8.088;2023-04-06T10:13:25;7.60;;;5.70;;
53670;SDS011;39571;48.612;8.088;2023-04-06T10:15:52;6.95;;;6.05;;
53670;SDS011;39571;48.612;8.088;2023-04-06T10:18:18;7.18;;;5.70;;
53670;SDS011;39571;48.612;8.088;2023-04-06T10:21:00;6.00;;;5.40;;
53670;SDS011;39571;48.612;8.088;2023-04-06T10:26:14;6.75;;;6.05;;
53670;SDS011;39571;48.612;8.088;2023-04-06T10:28:41;7.18;;;6.18;;
53670;SDS011;39571;48.612;8.088;2023-04-06T10:31:08;6.75;;;5.60;;
53670;SDS011;39571;48.612;8.088;2023-04-06T10:33:34;5.70;;;5.03;;
53670;SDS011;39571;48.612;8.088;2023-04-06T10:36:22;6.70;;;5.05;;
53670;SDS011;39571;48.612;8.088;2023-04-06T10:38:56;6.50;;;5.07;;
53670;SDS011;39571;48.612;8.088;2023-04-06T10:41:23;7.13;;;6.43;;
53670;SDS011;39571;48.612;8.088;2023-04-06T10:43:56;6.03;;;5.40;;
53670;SDS011;39571;48.612;8.088;2023-04-06T10:46:26;6.80;;;5.25;;
53670;SDS011;39571;48.612;8.088;2023-04-06T10:48:52;6.40;;;4.65;;
53670;SDS011;39571;48.612;8.088;2023-04-06T10:51:18;5.65;;;4.05;;
53670;SDS011;39571;48.612;8.088;2023-04-06T10:53:45;5.07;;;4.03;;
53670;SDS011;39571;48.612;8.088;2023-04-06T10:56:13;5.82;;;4.22;;
53670;SDS011;39571;48.612;8.088;2023-04-06T10:58:47;6.03;;;4.70;;
53670;SDS011;39571;48.612;8.088;2023-04-06T11:01:17;6.22;;;4.78;;
53670;SDS011;39571;48.612;8.088;2023-04-06T11:03:47;6.30;;;4.55;;
53670;SDS011;39571;48.612;8.088;2023-04-06T11:06:32;5.45;;;4.30;;
53670;SDS011;39571;48.612;8.088;2023-04-06T11:08:58;5.20;;;4.00;;
53670;SDS011;39571;48.612;8.088;2023-04-06T11:11:24;4.07;;;3.65;;
53670;SDS011;39571;48.612;8.088;2023-04-06T11:13:55;4.38;;;3.22;;
53670;SDS011;39571;48.612;8.088;2023-04-06T11:16:31;4.07;;;3.42;;
53670;SDS011;39571;48.612;8.088;2023-04-06T11:18:57;4.05;;;3.55;;
53670;SDS011;39571;48.612;8.088;2023-04-06T11:24:22;4.75;;;4.10;;
53670;SDS011;39571;48.612;8.088;2023-04-06T11:29:22;5.43;;;4.43;;
53670;SDS011;39571;48.612;8.088;2023-04-06T11:31:49;5.72;;;4.60;;
53670;SDS011;39571;48.612;8.088;2023-04-06T11:34:25;5.97;;;4.80;;
53670;SDS011;39571;48.612;8.088;2023-04-06T11:36:56;6.10;;;4.80;;
53670;SDS011;39571;48.612;8.088;2023-04-06T11:39:24;7.32;;;5.60;;
53670;SDS011;39571;48.612;8.088;2023-04-06T11:41:52;5.88;;;5.13;;
53670;SDS011;39571;48.612;8.088;2023-04-06T11:44:42;6.93;;;5.38;;
53670;SDS011;39571;48.612;8.088;2023-04-06T11:47:11;8.85;;;6.20;;
53670;SDS011;39571;48.612;8.088;2023-04-06T11:49:37;9.02;;;6.45;;
53670;SDS011;39571;48.612;8.088;2023-04-06T11:52:26;7.25;;;5.82;;
53670;SDS011;39571;48.612;8.088;2023-04-06T11:54:52;7.57;;;6.43;;
53670;SDS011;39571;48.612;8.088;2023-04-06T11:57:20;7.43;;;5.75;;
53670;SDS011;39571;48.612;8.088;2023-04-06T11:59:46;6.93;;;6.05;;
53670;SDS011;39571;48.612;8.088;2023-04-06T12:02:12;7.43;;;5.85;;
53670;SDS011;39571;48.612;8.088;2023-04-06T12:04:37;7.40;;;6.32;;
53670;SDS011;39571;48.612;8.088;2023-04-06T12:07:03;8.05;;;6.65;;
53670;SDS011;39571;48.612;8.088;2023-04-06T12:09:29;6.50;;;5.78;;
53670;SDS011;39571;48.612;8.088;2023-04-06T12:11:55;7.65;;;5.50;;
53670;SDS011;39571;48.612;8.088;2023-04-06T12:14:20;7.18;;;5.20;;
53670;SDS011;39571;48.612;8.088;2023-04-06T12:16:46;8.23;;;6.15;;
53670;SDS011;39571;48.612;8.088;2023-04-06T12:19:12;6.95;;;5.22;;
53670;SDS011;39571;48.612;8.088;2023-04-06T12:21:37;7.78;;;5.72;;
53670;SDS011;39571;48.612;8.088;2023-04-06T12:24:03;6.93;;;5.30;;
